sensor_id;sensor_type;location;lat;lon;timestamp;temperature;humidity
7117;DHT22;3600;48.568;7.870;2023-03-04T00:00:25;1.80;99.90
7117;DHT22;3600;48.568;7.870;2023-03-04T00:02:52;1.70;99.90
7117;DHT22;3600;48.568;7.870;2023-03-04T00:05:19;1.60;99.90
7117;DHT22;3600;48.568;7.870;2023-03-04T00:07:45;1.50;99.90
7117;DHT22;3600;48.568;7.870;2023-03-04T00:10:12;1.30;99.90
7117;DHT22;3600;48.568;7.870;2023-03-04T00:12:39;1.30;99.90
7117;DHT22;3600;48.568;7.870;2023-03-04T00:15:06;1.50;99.90
7117;DHT22;3600;48.568;7.870;2023-03-04T00:17:33;1.60;99.90
7117;DHT22;3600;48.568;7.870;2023-03-04T00:20:00;1.60;99.90
7117;DHT22;3600;48.568;7.870;2023-03-04T00:22:26;1.60;99.90
7117;DHT22;3600;48.568;7.870;2023-03-04T00:24:53;1.60;99.90
7117;DHT22;3600;48.568;7.870;2023-03-04T00:27:20;1.70;99.90
7117;DHT22;3600;48.568;7.870;2023-03-04T00:29:47;1.60;99.90
7117;DHT22;3600;48.568;7.870;2023-03-04T00:32:13;1.50;99.90
7117;DHT22;3600;48.568;7.870;2023-03-04T00:34:41;1.30;99.90
7117;DHT22;3600;48.568;7.870;2023-03-04T00:37:08;1.20;99.90
7117;DHT22;3600;48.568;7.870;2023-03-04T00:39:35;1.30;99.90
7117;DHT22;3600;48.568;7.870;2023-03-04T00:42:02;1.20;99.90
7117;DHT22;3600;48.568;7.870;2023-03-04T00:44:28;1.30;99.90
7117;DHT22;3600;48.568;7.870;2023-03-04T00:46:55;1.40;99.90
7117;DHT22;3600;48.568;7.870;2023-03-04T00:49:22;1.50;99.90
7117;DHT22;3600;48.568;7.870;2023-03-04T00:51:49;1.60;99.90
7117;DHT22;3600;48.568;7.870;2023-03-04T00:54:15;1.60;99.90
7117;DHT22;3600;48.568;7.870;2023-03-04T00:56:42;1.60;99.90
7117;DHT22;3600;48.568;7.870;2023-03-04T00:59:09;1.60;99.90
7117;DHT22;3600;48.568;7.870;2023-03-04T01:01:36;1.60;99.90
7117;DHT22;3600;48.568;7.870;2023-03-04T01:04:02;1.50;99.90
7117;DHT22;3600;48.568;7.870;2023-03-04T01:06:29;1.40;99.90
7117;DHT22;3600;48.568;7.870;2023-03-04T01:08:56;1.40;99.90
7117;DHT22;3600;48.568;7.870;2023-03-04T01:11:23;1.40;99.90
7117;DHT22;3600;48.568;7.870;2023-03-04T01:13:50;1.30;99.90
7117;DHT22;3600;48.568;7.870;2023-03-04T01:16:16;1.30;99.90
7117;DHT22;3600;48.568;7.870;2023-03-04T01:18:43;1.30;99.90
7117;DHT22;3600;48.568;7.870;2023-03-04T01:21:12;1.40;99.90
7117;DHT22;3600;48.568;7.870;2023-03-04T01:23:39;1.50;99.90
7117;DHT22;3600;48.568;7.870;2023-03-04T01:26:06;1.50;99.90
7117;DHT22;3600;48.568;7.870;2023-03-04T01:28:33;1.60;99.90
7117;DHT22;3600;48.568;7.870;2023-03-04T01:31:02;1.70;99.90
7117;DHT22;3600;48.568;7.870;2023-03-04T01:33:29;1.80;99.90
7117;DHT22;3600;48.568;7.870;2023-03-04T01:35:57;1.70;99.90
7117;DHT22;3600;48.568;7.870;2023-03-04T01:38:24;1.80;99.90
7117;DHT22;3600;48.568;7.870;2023-03-04T01:40:51;1.80;99.90
7117;DHT22;3600;48.568;7.870;2023-03-04T01:43:22;1.80;99.90
7117;DHT22;3600;48.568;7.870;2023-03-04T01:45:51;1.80;99.90
7117;DHT22;3600;48.568;7.870;2023-03-04T01:48:23;1.90;99.90
7117;DHT22;3600;48.568;7.870;2023-03-04T01:50:51;1.80;99.90
7117;DHT22;3600;48.568;7.870;2023-03-04T01:53:24;1.80;99.90
7117;DHT22;3600;48.568;7.870;2023-03-04T01:55:52;1.90;99.90
7117;DHT22;3600;48.568;7.870;2023-03-04T01:58:20;1.90;99.90
7117;DHT22;3600;48.568;7.870;2023-03-04T02:00:46;1.80;99.90
7117;DHT22;3600;48.568;7.870;2023-03-04T02:03:15;1.90;99.90
7117;DHT22;3600;48.568;7.870;2023-03-04T02:05:46;2.00;99.90
7117;DHT22;3600;48.568;7.870;2023-03-04T02:08:14;1.90;99.90
7117;DHT22;3600;48.568;7.870;2023-03-04T02:10:42;1.90;99.90
7117;DHT22;3600;48.568;7.870;2023-03-04T02:13:10;1.90;99.90
7117;DHT22;3600;48.568;7.870;2023-03-04T02:15:38;2.00;99.90
7117;DHT22;3600;48.568;7.870;2023-03-04T02:18:17;1.90;99.90
7117;DHT22;3600;48.568;7.870;2023-03-04T02:20:53;1.90;99.90
7117;DHT22;3600;48.568;7.870;2023-03-04T02:23:34;1.70;99.90
7117;DHT22;3600;48.568;7.870;2023-03-04T02:28:32;1.90;99.90
7117;DHT22;3600;48.568;7.870;2023-03-04T02:30:59;2.00;99.90
7117;DHT22;3600;48.568;7.870;2023-03-04T02:33:26;1.90;99.90
7117;DHT22;3600;48.568;7.870;2023-03-04T02:35:53;1.90;99.90
7117;DHT22;3600;48.568;7.870;2023-03-04T02:38:20;1.90;99.90
7117;DHT22;3600;48.568;7.870;2023-03-04T02:40:50;1.90;99.90
7117;DHT22;3600;48.568;7.870;2023-03-04T02:43:19;2.00;99.90
7117;DHT22;3600;48.568;7.870;2023-03-04T02:45:48;2.00;99.90
7117;DHT22;3600;48.568;7.870;2023-03-04T02:48:19;1.80;99.90
7117;DHT22;3600;48.568;7.870;2023-03-04T02:50:50;1.80;99.90
7117;DHT22;3600;48.568;7.870;2023-03-04T02:53:18;1.70;99.90
7117;DHT22;3600;48.568;7.870;2023-03-04T02:55:46;1.70;99.90
7117;DHT22;3600;48.568;7.870;2023-03-04T02:58:14;1.80;99.90
7117;DHT22;3600;48.568;7.870;2023-03-04T03:00:41;1.70;99.90
7117;DHT22;3600;48.568;7.870;2023-03-04T03:03:08;1.60;99.90
7117;DHT22;3600;48.568;7.870;2023-03-04T03:05:35;1.60;99.90
7117;DHT22;3600;48.568;7.870;2023-03-04T03:08:02;1.80;99.90
7117;DHT22;3600;48.568;7.870;2023-03-04T03:10:29;1.80;99.90
7117;DHT22;3600;48.568;7.870;2023-03-04T03:12:56;1.70;99.90
7117;DHT22;3600;48.568;7.870;2023-03-04T03:15:23;1.60;99.90
7117;DHT22;3600;48.568;7.870;2023-03-04T03:17:50;1.50;99.90
7117;DHT22;3600;48.568;7.870;2023-03-04T03:20:17;1.50;99.90
7117;DHT22;3600;48.568;7.870;2023-03-04T03:22:45;1.40;99.90
7117;DHT22;3600;48.568;7.870;2023-03-04T03:25:13;1.30;99.90
7117;DHT22;3600;48.568;7.870;2023-03-04T03:27:41;1.50;99.90
7117;DHT22;3600;48.568;7.870;2023-03-04T03:30:10;1.60;99.90
7117;DHT22;3600;48.568;7.870;2023-03-04T03:32:37;1.50;99.90
7117;DHT22;3600;48.568;7.870;2023-03-04T03:35:04;1.30;99.90
7117;DHT22;3600;48.568;7.870;2023-03-04T03:37:31;1.40;99.90
7117;DHT22;3600;48.568;7.870;2023-03-04T03:39:57;1.50;99.90
7117;DHT22;3600;48.568;7.870;2023-03-04T03:42:24;1.50;99.90
7117;DHT22;3600;48.568;7.870;2023-03-04T03:44:51;1.30;99.90
7117;DHT22;3600;48.568;7.870;2023-03-04T03:47:17;1.30;99.90
7117;DHT22;3600;48.568;7.870;2023-03-04T03:49:44;1.40;99.90
7117;DHT22;3600;48.568;7.870;2023-03-04T03:52:11;1.30;99.90
7117;DHT22;3600;48.568;7.870;2023-03-04T03:54:38;1.50;99.90
7117;DHT22;3600;48.568;7.870;2023-03-04T03:57:05;1.30;99.90
7117;DHT22;3600;48.568;7.870;2023-03-04T03:59:31;1.30;99.90
7117;DHT22;3600;48.568;7.870;2023-03-04T04:01:58;1.20;99.90
7117;DHT22;3600;48.568;7.870;2023-03-04T04:04:25;1.00;99.90
7117;DHT22;3600;48.568;7.870;2023-03-04T04:06:52;0.90;99.90
7117;DHT22;3600;48.568;7.870;2023-03-04T04:09:19;1.00;99.90
7117;DHT22;3600;48.568;7.870;2023-03-04T04:11:45;0.90;99.90
7117;DHT22;3600;48.568;7.870;2023-03-04T04:14:13;1.00;99.90
7117;DHT22;3600;48.568;7.870;2023-03-04T04:16:40;0.60;99.90
7117;DHT22;3600;48.568;7.870;2023-03-04T04:19:08;0.50;99.90
7117;DHT22;3600;48.568;7.870;2023-03-04T04:21:35;0.50;99.90
7117;DHT22;3600;48.568;7.870;2023-03-04T04:24:02;0.40;99.90
7117;DHT22;3600;48.568;7.870;2023-03-04T04:26:29;0.40;99.90
7117;DHT22;3600;48.568;7.870;2023-03-04T04:28:56;0.40;99.90
7117;DHT22;3600;48.568;7.870;2023-03-04T04:31:22;0.40;99.90
7117;DHT22;3600;48.568;7.870;2023-03-04T04:33:49;0.50;99.90
7117;DHT22;3600;48.568;7.870;2023-03-04T04:36:16;0.40;99.90
7117;DHT22;3600;48.568;7.870;2023-03-04T04:38:43;0.40;99.90
7117;DHT22;3600;48.568;7.870;2023-03-04T04:41:22;0.30;99.90
7117;DHT22;3600;48.568;7.870;2023-03-04T04:43:49;0.30;99.90
7117;DHT22;3600;48.568;7.870;2023-03-04T04:46:17;0.30;99.90
7117;DHT22;3600;48.568;7.870;2023-03-04T04:48:44;0.20;99.90
7117;DHT22;3600;48.568;7.870;2023-03-04T04:51:11;0.10;99.90
7117;DHT22;3600;48.568;7.870;2023-03-04T04:53:38;0.10;99.90
7117;DHT22;3600;48.568;7.870;2023-03-04T04:56:23;0.10;99.90
7117;DHT22;3600;48.568;7.870;2023-03-04T04:59:00;0.10;99.90
7117;DHT22;3600;48.568;7.870;2023-03-04T05:01:27;0.10;99.90
7117;DHT22;3600;48.568;7.870;2023-03-04T05:03:54;0.00;99.90
7117;DHT22;3600;48.568;7.870;2023-03-04T05:06:22;0.30;99.90
7117;DHT22;3600;48.568;7.870;2023-03-04T05:08:50;0.20;99.90
7117;DHT22;3600;48.568;7.870;2023-03-04T05:11:18;0.10;99.90
7117;DHT22;3600;48.568;7.870;2023-03-04T05:13:45;0.00;99.90
7117;DHT22;3600;48.568;7.870;2023-03-04T05:16:13;0.00;99.90
7117;DHT22;3600;48.568;7.870;2023-03-04T05:18:40;-0.10;99.90
7117;DHT22;3600;48.568;7.870;2023-03-04T05:21:06;-0.10;99.90
7117;DHT22;3600;48.568;7.870;2023-03-04T05:23:36;-0.10;99.90
7117;DHT22;3600;48.568;7.870;2023-03-04T05:26:06;-0.10;99.90
7117;DHT22;3600;48.568;7.870;2023-03-04T05:28:34;-0.20;99.90
7117;DHT22;3600;48.568;7.870;2023-03-04T05:31:01;-0.30;99.90
7117;DHT22;3600;48.568;7.870;2023-03-04T05:33:28;-0.20;99.90
7117;DHT22;3600;48.568;7.870;2023-03-04T05:35:55;-0.30;99.90
7117;DHT22;3600;48.568;7.870;2023-03-04T05:38:22;-0.30;99.90
7117;DHT22;3600;48.568;7.870;2023-03-04T05:40:56;-0.30;99.90
7117;DHT22;3600;48.568;7.870;2023-03-04T05:43:25;-0.30;99.90
7117;DHT22;3600;48.568;7.870;2023-03-04T05:45:53;-0.30;99.90
7117;DHT22;3600;48.568;7.870;2023-03-04T05:48:20;-0.30;99.90
7117;DHT22;3600;48.568;7.870;2023-03-04T05:50:52;-0.30;99.90
7117;DHT22;3600;48.568;7.870;2023-03-04T05:53:19;-0.30;99.90
7117;DHT22;3600;48.568;7.870;2023-03-04T05:55:46;-0.40;99.90
7117;DHT22;3600;48.568;7.870;2023-03-04T05:58:14;-0.40;99.90
7117;DHT22;3600;48.568;7.870;2023-03-04T06:00:41;-0.40;99.90
7117;DHT22;3600;48.568;7.870;2023-03-04T06:03:20;-0.50;99.90
7117;DHT22;3600;48.568;7.870;2023-03-04T06:05:47;-0.60;99.90
7117;DHT22;3600;48.568;7.870;2023-03-04T06:08:14;-0.50;99.90
7117;DHT22;3600;48.568;7.870;2023-03-04T06:10:40;-0.50;99.90
7117;DHT22;3600;48.568;7.870;2023-03-04T06:13:08;-0.60;99.90
7117;DHT22;3600;48.568;7.870;2023-03-04T06:15:34;-0.60;99.90
7117;DHT22;3600;48.568;7.870;2023-03-04T06:18:01;-0.60;99.90
7117;DHT22;3600;48.568;7.870;2023-03-04T06:20:28;-0.70;99.90
7117;DHT22;3600;48.568;7.870;2023-03-04T06:22:55;-0.60;99.90
7117;DHT22;3600;48.568;7.870;2023-03-04T06:25:22;-0.50;99.90
7117;DHT22;3600;48.568;7.870;2023-03-04T06:27:49;-0.50;99.90
7117;DHT22;3600;48.568;7.870;2023-03-04T06:30:17;-0.40;99.90
7117;DHT22;3600;48.568;7.870;2023-03-04T06:32:44;-0.50;99.90
7117;DHT22;3600;48.568;7.870;2023-03-04T06:35:14;-0.40;99.90
7117;DHT22;3600;48.568;7.870;2023-03-04T06:37:42;-0.40;99.90
7117;DHT22;3600;48.568;7.870;2023-03-04T06:40:09;-0.60;99.90
7117;DHT22;3600;48.568;7.870;2023-03-04T06:42:36;-0.70;99.90
7117;DHT22;3600;48.568;7.870;2023-03-04T06:45:04;-0.70;99.90
7117;DHT22;3600;48.568;7.870;2023-03-04T06:47:31;-0.60;99.90
7117;DHT22;3600;48.568;7.870;2023-03-04T06:49:58;-0.60;99.90
7117;DHT22;3600;48.568;7.870;2023-03-04T06:52:24;-0.60;99.90
7117;DHT22;3600;48.568;7.870;2023-03-04T06:54:51;-0.60;99.90
7117;DHT22;3600;48.568;7.870;2023-03-04T06:57:18;-0.60;99.90
7117;DHT22;3600;48.568;7.870;2023-03-04T06:59:45;-0.50;99.90
7117;DHT22;3600;48.568;7.870;2023-03-04T07:02:12;-0.40;99.90
7117;DHT22;3600;48.568;7.870;2023-03-04T07:04:39;-0.40;99.90
7117;DHT22;3600;48.568;7.870;2023-03-04T07:07:06;-0.30;99.90
7117;DHT22;3600;48.568;7.870;2023-03-04T07:09:32;-0.20;99.90
7117;DHT22;3600;48.568;7.870;2023-03-04T07:11:59;-0.20;99.90
7117;DHT22;3600;48.568;7.870;2023-03-04T07:14:26;-0.10;99.90
7117;DHT22;3600;48.568;7.870;2023-03-04T07:16:53;-0.20;99.90
7117;DHT22;3600;48.568;7.870;2023-03-04T07:19:20;-0.10;99.90
7117;DHT22;3600;48.568;7.870;2023-03-04T07:21:47;0.00;99.90
7117;DHT22;3600;48.568;7.870;2023-03-04T07:24:14;0.10;99.90
7117;DHT22;3600;48.568;7.870;2023-03-04T07:26:41;0.00;99.90
7117;DHT22;3600;48.568;7.870;2023-03-04T07:29:08;0.20;99.90
7117;DHT22;3600;48.568;7.870;2023-03-04T07:31:35;0.30;99.90
7117;DHT22;3600;48.568;7.870;2023-03-04T07:34:05;0.30;99.90
7117;DHT22;3600;48.568;7.870;2023-03-04T07:36:34;0.30;99.90
7117;DHT22;3600;48.568;7.870;2023-03-04T07:39:02;0.30;99.90
7117;DHT22;3600;48.568;7.870;2023-03-04T07:41:29;0.50;99.90
7117;DHT22;3600;48.568;7.870;2023-03-04T07:43:57;0.40;99.90
7117;DHT22;3600;48.568;7.870;2023-03-04T07:46:27;0.40;99.90
7117;DHT22;3600;48.568;7.870;2023-03-04T07:48:54;0.80;99.90
7117;DHT22;3600;48.568;7.870;2023-03-04T07:51:24;0.80;99.90
7117;DHT22;3600;48.568;7.870;2023-03-04T07:53:54;0.90;99.90
7117;DHT22;3600;48.568;7.870;2023-03-04T07:56:24;0.90;99.90
7117;DHT22;3600;48.568;7.870;2023-03-04T07:58:51;1.00;99.90
7117;DHT22;3600;48.568;7.870;2023-03-04T08:01:27;1.00;99.90
7117;DHT22;3600;48.568;7.870;2023-03-04T08:03:55;0.90;99.90
7117;DHT22;3600;48.568;7.870;2023-03-04T08:06:22;1.00;99.90
7117;DHT22;3600;48.568;7.870;2023-03-04T08:09:04;1.10;99.90
7117;DHT22;3600;48.568;7.870;2023-03-04T08:11:33;1.20;99.90
7117;DHT22;3600;48.568;7.870;2023-03-04T08:14:00;1.20;99.90
7117;DHT22;3600;48.568;7.870;2023-03-04T08:16:27;1.20;99.90
7117;DHT22;3600;48.568;7.870;2023-03-04T08:18:57;1.50;99.90
7117;DHT22;3600;48.568;7.870;2023-03-04T08:21:25;1.30;99.90
7117;DHT22;3600;48.568;7.870;2023-03-04T08:23:53;1.20;99.90
7117;DHT22;3600;48.568;7.870;2023-03-04T08:26:33;1.20;99.90
7117;DHT22;3600;48.568;7.870;2023-03-04T08:29:02;1.30;99.90
7117;DHT22;3600;48.568;7.870;2023-03-04T08:31:29;1.50;99.90
7117;DHT22;3600;48.568;7.870;2023-03-04T08:33:56;1.50;99.90
7117;DHT22;3600;48.568;7.870;2023-03-04T08:36:23;1.60;99.90
7117;DHT22;3600;48.568;7.870;2023-03-04T08:38:50;1.60;99.90
7117;DHT22;3600;48.568;7.870;2023-03-04T08:41:16;1.70;99.90
7117;DHT22;3600;48.568;7.870;2023-03-04T08:43:44;1.80;99.90
7117;DHT22;3600;48.568;7.870;2023-03-04T08:46:11;1.80;99.90
7117;DHT22;3600;48.568;7.870;2023-03-04T08:48:38;1.90;99.90
7117;DHT22;3600;48.568;7.870;2023-03-04T08:51:09;1.90;99.90
7117;DHT22;3600;48.568;7.870;2023-03-04T08:53:37;2.00;99.90
7117;DHT22;3600;48.568;7.870;2023-03-04T08:56:05;2.10;99.90
7117;DHT22;3600;48.568;7.870;2023-03-04T08:58:32;2.30;99.90
7117;DHT22;3600;48.568;7.870;2023-03-04T09:01:00;2.30;99.90
7117;DHT22;3600;48.568;7.870;2023-03-04T09:03:27;2.20;99.90
7117;DHT22;3600;48.568;7.870;2023-03-04T09:05:54;2.30;99.90
7117;DHT22;3600;48.568;7.870;2023-03-04T09:08:21;2.30;99.90
7117;DHT22;3600;48.568;7.870;2023-03-04T09:10:52;2.40;99.90
7117;DHT22;3600;48.568;7.870;2023-03-04T09:13:20;2.50;99.90
7117;DHT22;3600;48.568;7.870;2023-03-04T09:15:50;2.50;99.90
7117;DHT22;3600;48.568;7.870;2023-03-04T09:18:19;2.60;99.90
7117;DHT22;3600;48.568;7.870;2023-03-04T09:20:46;2.60;99.90
7117;DHT22;3600;48.568;7.870;2023-03-04T09:23:13;2.60;99.90
7117;DHT22;3600;48.568;7.870;2023-03-04T09:25:41;2.60;99.90
7117;DHT22;3600;48.568;7.870;2023-03-04T09:28:09;2.70;99.90
7117;DHT22;3600;48.568;7.870;2023-03-04T09:30:37;2.90;99.90
7117;DHT22;3600;48.568;7.870;2023-03-04T09:33:03;2.80;99.90
7117;DHT22;3600;48.568;7.870;2023-03-04T09:35:30;2.90;99.90
7117;DHT22;3600;48.568;7.870;2023-03-04T09:37:58;3.00;99.90
7117;DHT22;3600;48.568;7.870;2023-03-04T09:40:36;3.00;99.90
7117;DHT22;3600;48.568;7.870;2023-03-04T09:43:06;3.00;99.90
7117;DHT22;3600;48.568;7.870;2023-03-04T09:45:40;3.10;99.90
7117;DHT22;3600;48.568;7.870;2023-03-04T09:48:09;3.20;99.90
7117;DHT22;3600;48.568;7.870;2023-03-04T09:50:43;3.20;99.90
7117;DHT22;3600;48.568;7.870;2023-03-04T09:53:21;3.30;99.90
7117;DHT22;3600;48.568;7.870;2023-03-04T09:55:53;3.30;99.90
7117;DHT22;3600;48.568;7.870;2023-03-04T10:04:39;3.30;99.90
7117;DHT22;3600;48.568;7.870;2023-03-04T10:07:18;3.40;99.90
7117;DHT22;3600;48.568;7.870;2023-03-04T10:09:49;3.60;99.90
7117;DHT22;3600;48.568;7.870;2023-03-04T10:12:22;3.60;99.90
7117;DHT22;3600;48.568;7.870;2023-03-04T10:14:51;3.70;99.90
7117;DHT22;3600;48.568;7.870;2023-03-04T10:25:17;3.90;99.90
7117;DHT22;3600;48.568;7.870;2023-03-04T10:27:56;4.10;99.90
7117;DHT22;3600;48.568;7.870;2023-03-04T10:30:50;4.30;99.90
7117;DHT22;3600;48.568;7.870;2023-03-04T10:33:21;4.00;99.90
7117;DHT22;3600;48.568;7.870;2023-03-04T10:38:41;4.20;99.90
7117;DHT22;3600;48.568;7.870;2023-03-04T10:41:16;4.30;99.90
7117;DHT22;3600;48.568;7.870;2023-03-04T10:43:50;4.40;99.90
7117;DHT22;3600;48.568;7.870;2023-03-04T10:46:26;4.40;99.90
7117;DHT22;3600;48.568;7.870;2023-03-04T10:48:53;4.40;99.90
7117;DHT22;3600;48.568;7.870;2023-03-04T10:51:22;4.30;99.90
7117;DHT22;3600;48.568;7.870;2023-03-04T10:54:04;4.40;99.90
7117;DHT22;3600;48.568;7.870;2023-03-04T10:56:33;4.50;99.90
7117;DHT22;3600;48.568;7.870;2023-03-04T11:02:00;4.80;99.90
7117;DHT22;3600;48.568;7.870;2023-03-04T11:04:32;4.70;99.90
7117;DHT22;3600;48.568;7.870;2023-03-04T11:06:59;4.90;99.90
7117;DHT22;3600;48.568;7.870;2023-03-04T11:09:28;4.90;99.90
7117;DHT22;3600;48.568;7.870;2023-03-04T11:11:59;5.10;99.90
7117;DHT22;3600;48.568;7.870;2023-03-04T11:17:39;5.00;99.90
7117;DHT22;3600;48.568;7.870;2023-03-04T11:22:45;5.20;99.90
7117;DHT22;3600;48.568;7.870;2023-03-04T11:25:49;5.20;99.90
7117;DHT22;3600;48.568;7.870;2023-03-04T11:28:22;5.30;99.90
7117;DHT22;3600;48.568;7.870;2023-03-04T11:30:54;5.30;99.90
7117;DHT22;3600;48.568;7.870;2023-03-04T11:33:40;5.20;99.90
7117;DHT22;3600;48.568;7.870;2023-03-04T11:36:28;5.00;99.90
7117;DHT22;3600;48.568;7.870;2023-03-04T11:38:56;5.30;99.90
7117;DHT22;3600;48.568;7.870;2023-03-04T11:41:33;5.50;99.90
7117;DHT22;3600;48.568;7.870;2023-03-04T11:44:02;5.60;99.90
7117;DHT22;3600;48.568;7.870;2023-03-04T11:52:38;5.50;99.90
7117;DHT22;3600;48.568;7.870;2023-03-04T11:55:45;5.50;99.90
7117;DHT22;3600;48.568;7.870;2023-03-04T11:58:24;5.20;99.90
7117;DHT22;3600;48.568;7.870;2023-03-04T12:01:08;5.40;99.90
7117;DHT22;3600;48.568;7.870;2023-03-04T12:06:51;5.60;99.90
7117;DHT22;3600;48.568;7.870;2023-03-04T12:10:05;5.60;99.90
7117;DHT22;3600;48.568;7.870;2023-03-04T12:16:03;5.60;99.90
7117;DHT22;3600;48.568;7.870;2023-03-04T12:18:44;5.70;99.90
7117;DHT22;3600;48.568;7.870;2023-03-04T12:21:32;5.70;99.90
7117;DHT22;3600;48.568;7.870;2023-03-04T12:29:57;5.80;99.90
7117;DHT22;3600;48.568;7.870;2023-03-04T12:33:00;5.70;99.90
7117;DHT22;3600;48.568;7.870;2023-03-04T12:41:33;5.70;99.90
7117;DHT22;3600;48.568;7.870;2023-03-04T12:44:17;5.70;99.90
7117;DHT22;3600;48.568;7.870;2023-03-04T12:47:07;5.70;99.90
7117;DHT22;3600;48.568;7.870;2023-03-04T12:49:59;6.00;99.90
7117;DHT22;3600;48.568;7.870;2023-03-04T12:52:49;6.30;99.90
7117;DHT22;3600;48.568;7.870;2023-03-04T12:55:25;6.20;99.90
7117;DHT22;3600;48.568;7.870;2023-03-04T12:57:56;5.40;99.90
7117;DHT22;3600;48.568;7.870;2023-03-04T13:16:44;6.00;99.90
7117;DHT22;3600;48.568;7.870;2023-03-04T13:22:27;6.50;99.90
7117;DHT22;3600;48.568;7.870;2023-03-04T13:24:56;6.20;99.90
7117;DHT22;3600;48.568;7.870;2023-03-04T13:27:46;6.20;99.90
7117;DHT22;3600;48.568;7.870;2023-03-04T13:43:45;6.60;99.90
7117;DHT22;3600;48.568;7.870;2023-03-04T13:56:48;6.20;99.90
7117;DHT22;3600;48.568;7.870;2023-03-04T13:59:26;6.00;99.90
7117;DHT22;3600;48.568;7.870;2023-03-04T14:02:17;6.20;99.90
7117;DHT22;3600;48.568;7.870;2023-03-04T14:07:30;6.40;99.40
7117;DHT22;3600;48.568;7.870;2023-03-04T14:12:33;6.20;99.90
7117;DHT22;3600;48.568;7.870;2023-03-04T14:15:51;6.50;99.90
7117;DHT22;3600;48.568;7.870;2023-03-04T14:17:53;6.70;99.90
7117;DHT22;3600;48.568;7.870;2023-03-04T14:20:25;6.30;99.50
7117;DHT22;3600;48.568;7.870;2023-03-04T14:22:52;5.90;99.80
7117;DHT22;3600;48.568;7.870;2023-03-04T14:28:01;6.60;99.90
7117;DHT22;3600;48.568;7.870;2023-03-04T14:30:29;7.00;99.80
7117;DHT22;3600;48.568;7.870;2023-03-04T14:33:14;6.60;99.60
7117;DHT22;3600;48.568;7.870;2023-03-04T14:35:46;6.70;99.90
7117;DHT22;3600;48.568;7.870;2023-03-04T14:38:34;6.80;99.80
7117;DHT22;3600;48.568;7.870;2023-03-04T14:41:20;6.90;99.90
7117;DHT22;3600;48.568;7.870;2023-03-04T14:44:00;6.80;99.90
7117;DHT22;3600;48.568;7.870;2023-03-04T14:46:37;6.70;99.90
7117;DHT22;3600;48.568;7.870;2023-03-04T14:49:08;6.80;99.90
7117;DHT22;3600;48.568;7.870;2023-03-04T14:51:46;6.70;99.90
7117;DHT22;3600;48.568;7.870;2023-03-04T14:56:52;6.80;99.90
7117;DHT22;3600;48.568;7.870;2023-03-04T14:59:28;6.80;99.90
7117;DHT22;3600;48.568;7.870;2023-03-04T15:02:28;7.00;99.90
7117;DHT22;3600;48.568;7.870;2023-03-04T15:07:57;6.60;99.90
7117;DHT22;3600;48.568;7.870;2023-03-04T15:10:27;6.30;99.90
7117;DHT22;3600;48.568;7.870;2023-03-04T15:12:56;6.30;99.90
7117;DHT22;3600;48.568;7.870;2023-03-04T15:15:43;6.00;99.90
7117;DHT22;3600;48.568;7.870;2023-03-04T15:20:42;5.90;99.90
7117;DHT22;3600;48.568;7.870;2023-03-04T15:23:17;6.30;99.90
7117;DHT22;3600;48.568;7.870;2023-03-04T15:25:44;6.30;99.90
7117;DHT22;3600;48.568;7.870;2023-03-04T15:28:16;6.40;99.90
7117;DHT22;3600;48.568;7.870;2023-03-04T15:30:43;6.20;99.90
7117;DHT22;3600;48.568;7.870;2023-03-04T15:33:11;5.80;99.90
7117;DHT22;3600;48.568;7.870;2023-03-04T15:35:39;5.70;99.90
7117;DHT22;3600;48.568;7.870;2023-03-04T15:38:09;5.50;99.90
7117;DHT22;3600;48.568;7.870;2023-03-04T15:40:39;5.50;99.90
7117;DHT22;3600;48.568;7.870;2023-03-04T15:43:13;5.70;99.90
7117;DHT22;3600;48.568;7.870;2023-03-04T15:45:41;6.10;99.90
7117;DHT22;3600;48.568;7.870;2023-03-04T15:48:12;5.80;99.90
7117;DHT22;3600;48.568;7.870;2023-03-04T15:50:53;5.60;99.90
7117;DHT22;3600;48.568;7.870;2023-03-04T15:53:36;5.40;99.90
7117;DHT22;3600;48.568;7.870;2023-03-04T15:56:10;5.40;99.90
7117;DHT22;3600;48.568;7.870;2023-03-04T15:58:39;5.20;99.90
7117;DHT22;3600;48.568;7.870;2023-03-04T16:01:06;5.00;99.90
7117;DHT22;3600;48.568;7.870;2023-03-04T16:03:33;5.00;99.90
7117;DHT22;3600;48.568;7.870;2023-03-04T16:05:59;5.20;99.90
7117;DHT22;3600;48.568;7.870;2023-03-04T16:08:27;5.10;99.90
7117;DHT22;3600;48.568;7.870;2023-03-04T16:10:53;5.00;99.90
7117;DHT22;3600;48.568;7.870;2023-03-04T16:13:22;4.80;99.90
7117;DHT22;3600;48.568;7.870;2023-03-04T16:15:49;4.70;99.90
7117;DHT22;3600;48.568;7.870;2023-03-04T16:18:16;4.80;99.90
7117;DHT22;3600;48.568;7.870;2023-03-04T16:20:46;4.80;99.90
7117;DHT22;3600;48.568;7.870;2023-03-04T16:23:19;4.70;99.90
7117;DHT22;3600;48.568;7.870;2023-03-04T16:25:48;4.90;99.90
7117;DHT22;3600;48.568;7.870;2023-03-04T16:28:15;4.80;99.90
7117;DHT22;3600;48.568;7.870;2023-03-04T16:30:42;4.60;99.90
7117;DHT22;3600;48.568;7.870;2023-03-04T16:33:09;4.60;99.90
7117;DHT22;3600;48.568;7.870;2023-03-04T16:35:38;4.60;99.90
7117;DHT22;3600;48.568;7.870;2023-03-04T16:38:15;4.50;99.90
7117;DHT22;3600;48.568;7.870;2023-03-04T16:40:42;4.50;99.90
7117;DHT22;3600;48.568;7.870;2023-03-04T16:43:12;4.50;99.90
7117;DHT22;3600;48.568;7.870;2023-03-04T16:45:40;4.60;99.90
7117;DHT22;3600;48.568;7.870;2023-03-04T16:48:07;4.40;99.90
7117;DHT22;3600;48.568;7.870;2023-03-04T16:50:35;4.40;99.90
7117;DHT22;3600;48.568;7.870;2023-03-04T16:53:02;4.20;99.90
7117;DHT22;3600;48.568;7.870;2023-03-04T16:55:30;4.30;99.90
7117;DHT22;3600;48.568;7.870;2023-03-04T16:57:57;4.20;99.90
7117;DHT22;3600;48.568;7.870;2023-03-04T17:00:26;4.20;99.90
7117;DHT22;3600;48.568;7.870;2023-03-04T17:02:58;4.30;99.90
7117;DHT22;3600;48.568;7.870;2023-03-04T17:05:28;4.30;99.90
7117;DHT22;3600;48.568;7.870;2023-03-04T17:07:55;4.30;99.90
7117;DHT22;3600;48.568;7.870;2023-03-04T17:10:22;4.20;99.90
7117;DHT22;3600;48.568;7.870;2023-03-04T17:12:50;4.20;99.90
7117;DHT22;3600;48.568;7.870;2023-03-04T17:15:17;4.20;99.90
7117;DHT22;3600;48.568;7.870;2023-03-04T17:17:44;4.30;99.90
7117;DHT22;3600;48.568;7.870;2023-03-04T17:20:14;4.30;99.90
7117;DHT22;3600;48.568;7.870;2023-03-04T17:22:41;4.20;99.90
7117;DHT22;3600;48.568;7.870;2023-03-04T17:25:09;4.20;99.90
7117;DHT22;3600;48.568;7.870;2023-03-04T17:27:36;4.20;99.90
7117;DHT22;3600;48.568;7.870;2023-03-04T17:30:04;4.20;99.90
7117;DHT22;3600;48.568;7.870;2023-03-04T17:32:32;4.20;99.90
7117;DHT22;3600;48.568;7.870;2023-03-04T17:34:59;4.20;99.90
7117;DHT22;3600;48.568;7.870;2023-03-04T17:37:26;4.20;99.90
7117;DHT22;3600;48.568;7.870;2023-03-04T17:39:53;4.20;99.90
7117;DHT22;3600;48.568;7.870;2023-03-04T17:42:20;4.20;99.90
7117;DHT22;3600;48.568;7.870;2023-03-04T17:44:47;4.10;99.90
7117;DHT22;3600;48.568;7.870;2023-03-04T17:47:13;4.20;99.90
7117;DHT22;3600;48.568;7.870;2023-03-04T17:49:41;4.10;99.90
7117;DHT22;3600;48.568;7.870;2023-03-04T17:52:09;4.30;99.90
7117;DHT22;3600;48.568;7.870;2023-03-04T17:54:36;4.20;99.90
7117;DHT22;3600;48.568;7.870;2023-03-04T17:57:03;4.20;99.90
7117;DHT22;3600;48.568;7.870;2023-03-04T17:59:30;4.20;99.90
7117;DHT22;3600;48.568;7.870;2023-03-04T18:01:57;4.20;99.90
7117;DHT22;3600;48.568;7.870;2023-03-04T18:04:24;4.30;99.90
7117;DHT22;3600;48.568;7.870;2023-03-04T18:06:51;4.20;99.90
7117;DHT22;3600;48.568;7.870;2023-03-04T18:09:17;4.30;99.90
7117;DHT22;3600;48.568;7.870;2023-03-04T18:11:44;4.30;99.90
7117;DHT22;3600;48.568;7.870;2023-03-04T18:14:11;4.20;99.90
7117;DHT22;3600;48.568;7.870;2023-03-04T18:16:39;4.20;99.90
7117;DHT22;3600;48.568;7.870;2023-03-04T18:19:06;4.30;99.90
7117;DHT22;3600;48.568;7.870;2023-03-04T18:21:35;4.20;99.90
7117;DHT22;3600;48.568;7.870;2023-03-04T18:24:02;4.10;99.90
7117;DHT22;3600;48.568;7.870;2023-03-04T18:26:29;4.10;99.90